createdAt,value
2017-05-11T00:00:08.060Z,5.52
2017-05-11T00:02:34.990Z,4.87
2017-05-11T00:05:01.911Z,5.53
2017-05-11T00:07:28.834Z,5.55
2017-05-11T00:09:55.759Z,5.63
2017-05-11T00:12:22.661Z,4.80
2017-05-11T00:14:49.568Z,4.85
2017-05-11T00:17:17.213Z,5.03
2017-05-11T00:19:44.129Z,4.70
2017-05-11T00:22:11.050Z,5.08
2017-05-11T00:24:38.234Z,6.02
2017-05-11T00:27:05.142Z,5.48
2017-05-11T00:29:32.086Z,5.27
2017-05-11T00:31:59.024Z,5.75
2017-05-11T00:34:25.965Z,5.30
2017-05-11T00:36:52.867Z,6.27
2017-05-11T00:39:19.806Z,5.68
2017-05-11T00:41:46.710Z,5.72
2017-05-11T00:44:13.621Z,5.70
2017-05-11T00:46:41.298Z,5.52
2017-05-11T00:49:08.234Z,4.57
2017-05-11T00:51:35.143Z,5.73
2017-05-11T00:54:02.058Z,5.75
2017-05-11T00:56:28.967Z,6.20
2017-05-11T00:58:56.626Z,5.88
2017-05-11T01:01:24.297Z,5.77
2017-05-11T01:03:51.213Z,5.25
2017-05-11T01:06:18.860Z,5.10
2017-05-11T01:08:45.897Z,5.22
2017-05-11T01:11:13.250Z,4.98
2017-05-11T01:13:40.147Z,5.47
2017-05-11T01:16:07.060Z,5.77
2017-05-11T01:18:33.981Z,5.87
2017-05-11T01:21:00.893Z,5.38
2017-05-11T01:23:27.801Z,5.30
2017-05-11T01:25:55.446Z,5.80
2017-05-11T01:28:22.354Z,5.10
2017-05-11T01:30:49.294Z,5.70
2017-05-11T01:33:16.234Z,6.23
2017-05-11T01:35:43.174Z,5.93
2017-05-11T01:38:10.106Z,5.77
2017-05-11T01:40:37.157Z,6.00
2017-05-11T01:43:04.142Z,5.87
2017-05-11T01:45:31.057Z,5.42
2017-05-11T01:47:57.985Z,5.58
2017-05-11T01:50:24.930Z,5.85
2017-05-11T01:52:51.839Z,5.50
2017-05-11T01:55:19.782Z,5.38
2017-05-11T01:57:46.691Z,5.68
2017-05-11T02:00:13.615Z,5.97
2017-05-11T02:02:40.550Z,6.10
2017-05-11T02:05:08.192Z,5.65
2017-05-11T02:07:35.100Z,6.00
2017-05-11T02:10:02.049Z,5.48
2017-05-11T02:12:29.022Z,6.00
2017-05-11T02:14:55.959Z,5.85
2017-05-11T02:17:23.202Z,5.75
2017-05-11T02:19:50.135Z,5.87
2017-05-11T02:22:17.051Z,6.30
2017-05-11T02:24:43.985Z,5.98
2017-05-11T02:27:10.890Z,6.45
2017-05-11T02:29:37.829Z,5.60
2017-05-11T02:32:04.745Z,5.60
2017-05-11T02:34:31.662Z,5.92
2017-05-11T02:36:58.586Z,5.47
2017-05-11T02:39:26.262Z,5.75
2017-05-11T02:41:53.179Z,5.90
2017-05-11T02:44:20.853Z,6.13
2017-05-11T02:46:48.152Z,5.48
2017-05-11T02:49:15.061Z,5.62
2017-05-11T02:51:41.988Z,5.67
2017-05-11T02:54:09.665Z,6.53
2017-05-11T02:56:36.764Z,6.30
2017-05-11T02:59:03.697Z,6.28
2017-05-11T03:01:30.959Z,5.73
2017-05-11T03:03:57.878Z,6.03
2017-05-11T03:06:24.791Z,6.37
2017-05-11T03:08:51.719Z,5.60
2017-05-11T03:11:19.371Z,6.83
2017-05-11T03:13:46.322Z,6.73
2017-05-11T03:16:14.121Z,6.97
2017-05-11T03:18:41.026Z,9.08
2017-05-11T03:21:07.930Z,9.63
2017-05-11T03:23:34.842Z,9.50
2017-05-11T03:26:01.757Z,7.70
2017-05-11T03:28:29.411Z,6.67
2017-05-11T03:30:56.325Z,6.88
2017-05-11T03:33:23.303Z,6.45
2017-05-11T03:35:50.201Z,7.00
2017-05-11T03:38:17.143Z,6.80
2017-05-11T03:40:44.074Z,6.08
2017-05-11T03:43:11.015Z,6.38
2017-05-11T03:45:38.034Z,6.60
2017-05-11T03:48:05.680Z,7.20
2017-05-11T03:50:32.597Z,6.87
2017-05-11T03:52:59.639Z,6.97
2017-05-11T03:55:26.569Z,7.50
2017-05-11T03:57:53.473Z,6.87
2017-05-11T04:00:21.522Z,6.42
2017-05-11T04:02:48.458Z,7.10
2017-05-11T04:05:15.392Z,7.60
2017-05-11T04:07:42.318Z,7.80
2017-05-11T04:10:09.288Z,7.60
2017-05-11T04:12:36.234Z,7.37
2017-05-11T04:15:03.169Z,7.12
2017-05-11T04:17:30.079Z,6.60
2017-05-11T04:19:57.013Z,6.78
2017-05-11T04:22:23.934Z,7.28
2017-05-11T04:24:51.606Z,7.48
2017-05-11T04:27:19.320Z,6.87
2017-05-11T04:29:46.244Z,7.12
2017-05-11T04:32:13.170Z,7.80
2017-05-11T04:34:40.077Z,6.90
2017-05-11T04:37:07.311Z,5.50
2017-05-11T04:39:34.229Z,6.68
2017-05-11T04:42:01.176Z,5.32
2017-05-11T04:44:28.138Z,6.95
2017-05-11T04:46:55.049Z,7.42
2017-05-11T04:49:22.018Z,7.17
2017-05-11T04:51:48.961Z,7.77
2017-05-11T04:54:15.898Z,8.03
2017-05-11T04:56:42.817Z,8.15
2017-05-11T04:59:09.777Z,7.43
2017-05-11T05:01:36.775Z,8.23
2017-05-11T05:04:04.495Z,10.53
2017-05-11T05:06:31.771Z,8.98
2017-05-11T05:08:58.744Z,8.88
2017-05-11T05:11:26.426Z,7.98
2017-05-11T05:13:53.398Z,8.40
2017-05-11T05:16:20.370Z,7.67
2017-05-11T05:18:47.329Z,7.77
2017-05-11T05:21:14.278Z,6.98
2017-05-11T05:23:42.007Z,7.50
2017-05-11T05:26:08.964Z,8.03
2017-05-11T05:28:35.917Z,7.82
2017-05-11T05:31:02.917Z,7.30
2017-05-11T05:33:29.885Z,7.35
2017-05-11T05:35:57.254Z,16.55
2017-05-11T05:38:24.262Z,13.52
2017-05-11T05:40:51.560Z,7.47
2017-05-11T05:43:18.932Z,6.95
2017-05-11T05:45:45.925Z,6.87
2017-05-11T05:48:13.181Z,6.76
2017-05-11T05:50:40.163Z,6.37
2017-05-11T05:53:08.172Z,6.62
2017-05-11T05:55:35.246Z,6.66
2017-05-11T05:58:02.214Z,6.27
2017-05-11T06:00:29.188Z,6.27
2017-05-11T06:02:56.187Z,6.20
2017-05-11T06:05:23.450Z,6.87
2017-05-11T06:07:50.415Z,6.80
2017-05-11T06:10:18.095Z,7.00
2017-05-11T06:12:45.785Z,6.48
2017-05-11T06:15:12.725Z,6.13
2017-05-11T06:17:39.818Z,5.96
2017-05-11T06:20:07.058Z,5.75
2017-05-11T06:22:34.059Z,5.38
2017-05-11T06:25:01.047Z,5.50
2017-05-11T06:27:28.154Z,7.77
2017-05-11T06:29:55.099Z,6.13
2017-05-11T06:32:22.123Z,5.73
2017-05-11T06:34:49.074Z,5.42
2017-05-11T06:37:16.022Z,5.20
2017-05-11T06:39:43.000Z,5.50
2017-05-11T06:42:09.978Z,5.93
2017-05-11T06:44:36.934Z,5.60
2017-05-11T06:47:04.627Z,5.00
2017-05-11T06:49:31.578Z,5.08
2017-05-11T06:51:58.545Z,4.87
2017-05-11T06:54:25.463Z,5.30
2017-05-11T06:56:52.419Z,4.80
2017-05-11T06:59:19.391Z,4.90
2017-05-11T07:01:46.337Z,4.95
2017-05-11T07:04:13.298Z,5.40
2017-05-11T07:06:40.234Z,4.95
2017-05-11T07:09:07.726Z,4.90
2017-05-11T07:11:35.823Z,4.20
2017-05-11T07:14:02.746Z,4.63
2017-05-11T07:16:29.692Z,4.48
2017-05-11T07:18:56.654Z,4.20
2017-05-11T07:21:23.570Z,4.32
2017-05-11T07:23:50.522Z,3.90
2017-05-11T07:26:17.458Z,3.85
2017-05-11T07:28:45.155Z,3.38
2017-05-11T07:31:12.111Z,2.90
2017-05-11T07:33:39.053Z,2.83
2017-05-11T07:36:06.018Z,3.30
2017-05-11T07:38:32.943Z,3.58
2017-05-11T07:40:59.914Z,3.40
2017-05-11T07:43:26.869Z,3.32
2017-05-11T07:45:54.554Z,3.38
2017-05-11T07:48:21.528Z,2.20
2017-05-11T07:50:48.457Z,2.74
2017-05-11T07:53:15.391Z,2.82
2017-05-11T07:55:42.349Z,2.30
2017-05-11T07:58:09.291Z,2.88
2017-05-11T08:00:36.260Z,2.46
2017-05-11T08:03:03.255Z,2.78
2017-05-11T08:05:30.954Z,3.28
2017-05-11T08:07:57.900Z,3.22
2017-05-11T08:10:24.847Z,2.82
2017-05-11T08:12:51.843Z,3.12
2017-05-11T08:15:19.504Z,3.60
2017-05-11T08:17:47.549Z,3.38
2017-05-11T08:20:14.510Z,3.04
2017-05-11T08:22:41.451Z,3.14
2017-05-11T08:25:08.374Z,3.98
2017-05-11T08:27:35.318Z,3.32
2017-05-11T08:30:02.307Z,4.12
2017-05-11T08:32:29.278Z,3.60
2017-05-11T08:34:56.247Z,3.56
2017-05-11T08:37:23.182Z,4.28
2017-05-11T08:39:50.151Z,4.00
2017-05-11T08:42:17.086Z,3.20
2017-05-11T08:44:44.014Z,3.70
2017-05-11T08:47:11.286Z,3.82
2017-05-11T08:49:38.218Z,3.70
2017-05-11T08:52:05.166Z,3.75
2017-05-11T08:54:32.099Z,4.05
2017-05-11T08:56:59.042Z,3.83
2017-05-11T08:59:25.980Z,3.70
2017-05-11T09:01:52.955Z,3.88
2017-05-11T09:04:19.949Z,3.55
2017-05-11T09:06:46.882Z,3.85
2017-05-11T09:09:14.559Z,3.25
2017-05-11T09:11:41.523Z,3.93
2017-05-11T09:14:08.459Z,3.80
2017-05-11T09:16:35.402Z,3.68
2017-05-11T09:19:02.357Z,3.53
2017-05-11T09:21:29.283Z,3.15
2017-05-11T09:23:56.247Z,3.35
2017-05-11T09:26:23.191Z,3.67
2017-05-11T09:28:50.135Z,3.17
2017-05-11T09:31:17.074Z,3.68
2017-05-11T09:33:43.998Z,2.83
2017-05-11T09:36:10.934Z,2.75
2017-05-11T09:38:37.863Z,2.60
2017-05-11T09:41:05.563Z,3.05
2017-05-11T09:43:32.499Z,3.10
2017-05-11T09:45:59.469Z,3.32
2017-05-11T09:48:26.441Z,3.42
2017-05-11T09:50:53.414Z,2.58
2017-05-11T09:53:20.836Z,2.72
2017-05-11T09:55:47.864Z,2.80
2017-05-11T09:58:14.799Z,2.70
2017-05-11T10:00:41.807Z,3.40
2017-05-11T10:03:08.758Z,3.40
2017-05-11T10:05:35.745Z,3.08
2017-05-11T10:08:02.706Z,3.42
2017-05-11T10:10:29.647Z,3.05
2017-05-11T10:12:56.843Z,3.10
2017-05-11T10:15:25.992Z,2.92
2017-05-11T10:17:53.796Z,3.40
2017-05-11T10:20:20.782Z,3.60
2017-05-11T10:22:47.770Z,3.40
2017-05-11T10:25:15.444Z,3.05
2017-05-11T10:27:43.180Z,3.13
2017-05-11T10:30:10.185Z,3.52
2017-05-11T10:32:37.135Z,3.37
2017-05-11T10:35:04.104Z,3.70
2017-05-11T10:37:31.063Z,3.10
2017-05-11T10:39:58.006Z,3.40
2017-05-11T10:42:25.246Z,3.13
2017-05-11T10:44:52.192Z,3.90
2017-05-11T10:47:19.130Z,3.42
2017-05-11T10:49:46.096Z,4.12
2017-05-11T10:52:13.859Z,3.80
2017-05-11T10:54:41.564Z,3.60
2017-05-11T10:57:08.533Z,3.60
2017-05-11T10:59:35.526Z,3.85
2017-05-11T11:02:03.237Z,3.25
2017-05-11T11:04:30.256Z,3.25
2017-05-11T11:06:57.261Z,3.60
2017-05-11T11:09:24.241Z,3.20
2017-05-11T11:11:51.179Z,3.40
2017-05-11T11:14:18.172Z,3.33
2017-05-11T11:16:45.296Z,3.17
2017-05-11T11:19:12.319Z,3.43
2017-05-11T11:21:39.336Z,3.68
2017-05-11T11:24:06.296Z,3.47
2017-05-11T11:26:34.133Z,3.37
2017-05-11T11:29:01.895Z,3.70
2017-05-11T11:31:28.858Z,3.75
2017-05-11T11:33:56.583Z,3.27
2017-05-11T11:36:23.634Z,3.28
2017-05-11T11:38:50.862Z,4.15
2017-05-11T11:41:17.896Z,3.33
2017-05-11T11:43:44.867Z,3.18
2017-05-11T11:46:11.844Z,3.40
2017-05-11T11:48:39.012Z,3.22
2017-05-11T11:51:06.085Z,3.95
2017-05-11T11:53:33.122Z,3.55
2017-05-11T11:56:00.063Z,3.42
2017-05-11T11:58:27.033Z,3.70
2017-05-11T12:00:54.035Z,3.33
2017-05-11T12:03:21.057Z,3.65
2017-05-11T12:05:47.998Z,3.27
2017-05-11T12:08:14.938Z,3.88
2017-05-11T12:10:41.929Z,4.04
2017-05-11T12:13:08.912Z,5.03
2017-05-11T12:15:36.004Z,5.40
2017-05-11T12:18:03.747Z,5.65
2017-05-11T12:20:31.177Z,5.97
2017-05-11T12:22:59.565Z,5.10
2017-05-11T12:25:28.866Z,5.18
2017-05-11T12:27:56.750Z,4.85
2017-05-11T12:30:24.507Z,4.70
2017-05-11T12:32:51.488Z,4.70
2017-05-11T12:35:19.254Z,4.57
2017-05-11T12:37:46.960Z,4.65
2017-05-11T12:40:13.894Z,4.54
2017-05-11T12:42:40.871Z,4.43
2017-05-11T12:45:07.869Z,4.72
2017-05-11T12:47:34.830Z,5.07
2017-05-11T12:50:01.787Z,4.77
2017-05-11T12:52:28.736Z,5.10
2017-05-11T12:54:55.692Z,4.58
2017-05-11T12:57:22.703Z,4.77
2017-05-11T12:59:49.654Z,4.72
2017-05-11T13:02:18.997Z,4.63
2017-05-11T13:04:46.862Z,4.33
2017-05-11T13:07:13.797Z,4.17
2017-05-11T13:09:40.785Z,4.48
2017-05-11T13:12:07.755Z,6.10
2017-05-11T13:14:34.687Z,6.22
2017-05-11T13:17:01.660Z,4.70
2017-05-11T13:19:28.698Z,4.85
2017-05-11T13:21:55.674Z,4.72
2017-05-11T13:24:22.645Z,4.78
2017-05-11T13:26:49.634Z,5.34
2017-05-11T13:29:16.611Z,4.80
2017-05-11T13:31:43.558Z,4.80
2017-05-11T13:34:10.545Z,4.70
2017-05-11T13:36:37.503Z,4.73
2017-05-11T13:39:04.494Z,4.78
2017-05-11T13:41:32.216Z,4.67
2017-05-11T13:43:59.261Z,5.40
2017-05-11T13:46:26.210Z,5.08
2017-05-11T13:48:53.283Z,4.54
2017-05-11T13:51:20.237Z,4.80
2017-05-11T13:53:47.282Z,4.70
2017-05-11T13:56:14.981Z,4.50
2017-05-11T13:58:41.944Z,4.37
2017-05-11T14:01:08.913Z,4.35
2017-05-11T14:03:35.874Z,4.50
2017-05-11T14:06:03.507Z,4.90
2017-05-11T14:08:30.470Z,5.05
2017-05-11T14:10:57.435Z,4.97
2017-05-11T14:13:25.127Z,4.60
2017-05-11T14:15:52.099Z,5.90
2017-05-11T14:18:19.075Z,5.00
2017-05-11T14:20:46.086Z,4.87
2017-05-11T14:23:13.893Z,4.40
2017-05-11T14:25:41.598Z,5.63
2017-05-11T14:28:08.602Z,5.17
2017-05-11T14:30:35.537Z,4.97
2017-05-11T14:33:02.501Z,4.80
2017-05-11T14:35:30.231Z,5.32
2017-05-11T14:37:57.211Z,5.16
2017-05-11T14:40:24.923Z,4.97
2017-05-11T14:42:51.931Z,5.58
2017-05-11T14:45:18.952Z,5.08
2017-05-11T14:47:46.675Z,4.60
2017-05-11T14:50:13.611Z,4.40
2017-05-11T14:52:40.527Z,4.23
2017-05-11T14:55:07.501Z,4.35
2017-05-11T14:57:34.471Z,4.02
2017-05-11T15:00:01.622Z,4.25
2017-05-11T15:02:28.871Z,4.13
2017-05-11T15:04:55.813Z,4.37
2017-05-11T15:07:22.766Z,4.18
2017-05-11T15:09:49.734Z,4.60
2017-05-11T15:12:17.521Z,9.10
2017-05-11T15:14:44.478Z,4.70
2017-05-11T15:17:11.422Z,4.70
2017-05-11T15:19:38.371Z,4.82
2017-05-11T15:22:05.343Z,5.05
2017-05-11T15:24:32.279Z,4.78
2017-05-11T15:26:59.225Z,4.78
2017-05-11T15:29:26.283Z,5.00
2017-05-11T15:31:53.744Z,5.23
2017-05-11T15:34:20.697Z,4.30
2017-05-11T15:36:47.636Z,4.70
2017-05-11T15:39:14.578Z,5.95
2017-05-11T15:41:41.608Z,4.75
2017-05-11T15:44:08.553Z,5.13
2017-05-11T15:46:35.534Z,4.68
2017-05-11T15:49:03.322Z,5.00
2017-05-11T15:51:30.244Z,5.30
2017-05-11T15:53:57.218Z,5.00
2017-05-11T15:56:24.299Z,5.37
2017-05-11T15:58:51.263Z,5.57
2017-05-11T16:01:18.198Z,5.27
2017-05-11T16:03:45.130Z,4.88
2017-05-11T16:06:12.071Z,4.83
2017-05-11T16:08:39.067Z,4.75
2017-05-11T16:11:06.054Z,5.45
2017-05-11T16:13:33.180Z,5.50
2017-05-11T16:16:00.100Z,5.07
2017-05-11T16:18:27.782Z,4.58
2017-05-11T16:20:54.731Z,5.00
2017-05-11T16:23:21.668Z,4.32
2017-05-11T16:25:48.610Z,4.68
2017-05-11T16:28:15.559Z,4.70
2017-05-11T16:30:42.945Z,4.33
2017-05-11T16:33:09.943Z,4.42
2017-05-11T16:35:36.917Z,4.70
2017-05-11T16:38:03.874Z,4.50
2017-05-11T16:40:30.852Z,4.18
2017-05-11T16:42:57.774Z,3.92
2017-05-11T16:45:24.729Z,4.50
2017-05-11T16:47:51.731Z,13.75
2017-05-11T16:50:18.730Z,6.17
2017-05-11T16:52:45.778Z,8.22
2017-05-11T16:55:13.429Z,19.25
2017-05-11T16:57:40.356Z,5.67
2017-05-11T17:00:07.318Z,5.33
2017-05-11T17:02:34.294Z,5.58
2017-05-11T17:05:01.299Z,4.78
2017-05-11T17:07:28.303Z,4.90
2017-05-11T17:09:55.364Z,5.63
2017-05-11T17:12:22.315Z,6.78
2017-05-11T17:14:49.348Z,5.15
2017-05-11T17:17:16.351Z,4.90
2017-05-11T17:19:43.475Z,4.20
2017-05-11T17:22:10.500Z,4.17
2017-05-11T17:24:37.506Z,4.57
2017-05-11T17:27:04.520Z,4.38
2017-05-11T17:29:31.487Z,4.45
2017-05-11T17:31:59.215Z,4.52
2017-05-11T17:34:26.221Z,4.50
2017-05-11T17:36:53.275Z,4.30
2017-05-11T17:39:20.380Z,4.60
2017-05-11T17:41:47.393Z,4.53
2017-05-11T17:44:14.391Z,4.60
2017-05-11T17:46:42.118Z,4.43
2017-05-11T17:49:09.096Z,4.12
2017-05-11T17:51:36.057Z,4.20
2017-05-11T17:54:03.011Z,4.52
2017-05-11T17:56:29.991Z,4.58
2017-05-11T17:58:56.959Z,3.92
2017-05-11T18:01:23.931Z,4.88
2017-05-11T18:03:50.941Z,19.73
2017-05-11T18:06:18.267Z,4.65
2017-05-11T18:08:45.216Z,4.55
2017-05-11T18:11:12.172Z,6.20
2017-05-11T18:13:39.140Z,4.50
2017-05-11T18:16:06.107Z,5.35
2017-05-11T18:18:33.077Z,5.20
2017-05-11T18:21:00.257Z,5.57
2017-05-11T18:23:27.199Z,4.58
2017-05-11T18:25:54.160Z,4.15
2017-05-11T18:28:21.412Z,3.93
2017-05-11T18:30:48.454Z,4.32
2017-05-11T18:33:15.704Z,4.80
2017-05-11T18:35:43.354Z,4.22
2017-05-11T18:38:10.321Z,4.50
2017-05-11T18:40:38.007Z,4.43
2017-05-11T18:43:05.035Z,7.10
2017-05-11T18:45:32.821Z,4.90
2017-05-11T18:47:59.783Z,4.42
2017-05-11T18:50:26.756Z,4.77
2017-05-11T18:52:53.781Z,4.83
2017-05-11T18:55:20.749Z,4.77
2017-05-11T18:57:47.745Z,4.58
2017-05-11T19:00:14.816Z,4.78
2017-05-11T19:02:41.785Z,4.78
2017-05-11T19:05:08.753Z,4.62
2017-05-11T19:07:36.482Z,4.62
2017-05-11T19:10:03.666Z,4.67
2017-05-11T19:12:30.652Z,5.40
2017-05-11T19:14:57.676Z,4.90
2017-05-11T19:17:24.653Z,5.00
2017-05-11T19:19:51.850Z,4.97
2017-05-11T19:22:18.885Z,4.60
2017-05-11T19:24:45.969Z,4.70
2017-05-11T19:27:13.281Z,4.58
2017-05-11T19:29:40.309Z,4.80
2017-05-11T19:32:07.461Z,4.33
2017-05-11T19:34:36.242Z,4.75
2017-05-11T19:37:03.265Z,4.30
2017-05-11T19:39:30.227Z,4.38
2017-05-11T19:41:57.184Z,4.40
2017-05-11T19:44:24.257Z,4.30
2017-05-11T19:46:51.232Z,4.10
2017-05-11T19:49:18.287Z,4.23
2017-05-11T19:51:45.264Z,3.90
2017-05-11T19:54:12.222Z,4.12
2017-05-11T19:56:39.281Z,4.30
2017-05-11T19:59:06.980Z,4.30
2017-05-11T20:01:33.938Z,4.10
2017-05-11T20:04:00.893Z,4.43
2017-05-11T20:06:27.927Z,4.23
2017-05-11T20:08:54.880Z,4.32
2017-05-11T20:11:21.876Z,4.05
2017-05-11T20:13:48.940Z,4.27
2017-05-11T20:16:15.859Z,4.12
2017-05-11T20:18:42.839Z,4.02
2017-05-11T20:21:09.782Z,4.10
2017-05-11T20:23:36.722Z,4.32
2017-05-11T20:26:04.391Z,4.20
2017-05-11T20:28:31.322Z,4.43
2017-05-11T20:30:59.021Z,4.30
2017-05-11T20:33:25.961Z,4.77
2017-05-11T20:35:52.920Z,4.23
2017-05-11T20:38:19.846Z,4.10
2017-05-11T20:40:47.058Z,4.95
2017-05-11T20:43:14.710Z,4.90
2017-05-11T20:45:41.627Z,4.78
2017-05-11T20:48:08.887Z,4.60
2017-05-11T20:50:35.829Z,4.70
2017-05-11T20:53:03.002Z,4.90
2017-05-11T20:55:30.235Z,4.82
2017-05-11T20:57:57.161Z,5.07
2017-05-11T21:00:24.150Z,4.70
2017-05-11T21:02:51.840Z,4.56
2017-05-11T21:05:18.766Z,4.28
2017-05-11T21:07:46.440Z,4.60
2017-05-11T21:10:13.397Z,4.80
2017-05-11T21:12:40.301Z,5.10
2017-05-11T21:15:07.967Z,4.62
2017-05-11T21:17:35.643Z,4.70
2017-05-11T21:20:02.625Z,5.05
2017-05-11T21:22:29.571Z,5.20
2017-05-11T21:24:56.518Z,4.40
2017-05-11T21:27:23.453Z,4.92
2017-05-11T21:29:50.391Z,4.67
2017-05-11T21:32:17.414Z,4.48
2017-05-11T21:34:44.337Z,4.90
2017-05-11T21:37:12.025Z,4.75
2017-05-11T21:39:38.994Z,4.58
2017-05-11T21:42:05.934Z,4.60
2017-05-11T21:44:32.883Z,4.48
2017-05-11T21:46:59.810Z,4.70
2017-05-11T21:49:26.754Z,4.70
2017-05-11T21:51:53.867Z,4.60
2017-05-11T21:54:21.568Z,4.90
2017-05-11T21:56:48.481Z,4.40
2017-05-11T21:59:16.157Z,4.80
2017-05-11T22:01:43.590Z,4.80
2017-05-11T22:04:11.284Z,4.77
2017-05-11T22:06:38.218Z,4.87
2017-05-11T22:09:05.153Z,4.80
2017-05-11T22:11:32.124Z,4.93
2017-05-11T22:13:59.051Z,4.38
2017-05-11T22:16:25.971Z,4.30
2017-05-11T22:18:53.751Z,4.65
2017-05-11T22:21:20.797Z,5.52
2017-05-11T22:23:47.757Z,5.88
2017-05-11T22:26:14.782Z,4.80
2017-05-11T22:28:42.446Z,5.30
2017-05-11T22:31:10.080Z,4.50
2017-05-11T22:33:37.199Z,4.93
2017-05-11T22:36:04.113Z,4.62
2017-05-11T22:38:31.069Z,5.10
2017-05-11T22:40:57.963Z,4.80
2017-05-11T22:43:24.867Z,5.07
2017-05-11T22:45:51.789Z,4.40
2017-05-11T22:48:18.705Z,5.00
2017-05-11T22:50:46.354Z,5.54
2017-05-11T22:53:13.287Z,5.80
2017-05-11T22:55:40.211Z,5.45
2017-05-11T22:58:07.139Z,5.02
2017-05-11T23:00:34.074Z,4.80
2017-05-11T23:03:00.991Z,4.90
2017-05-11T23:05:28.662Z,5.13
2017-05-11T23:07:55.978Z,5.40
2017-05-11T23:10:22.905Z,5.95
2017-05-11T23:12:49.953Z,5.40
2017-05-11T23:15:16.958Z,5.90
2017-05-11T23:17:43.864Z,6.23
2017-05-11T23:20:10.756Z,6.28
2017-05-11T23:22:37.685Z,5.85
2017-05-11T23:25:04.592Z,5.75
2017-05-11T23:27:31.501Z,6.00
2017-05-11T23:29:58.432Z,6.23
2017-05-11T23:32:25.332Z,5.83
2017-05-11T23:34:52.988Z,5.90
2017-05-11T23:37:20.230Z,6.10
2017-05-11T23:39:47.143Z,5.80
2017-05-11T23:42:14.094Z,6.12
2017-05-11T23:44:41.021Z,5.90
2017-05-11T23:47:07.906Z,6.04
2017-05-11T23:49:34.814Z,5.90
2017-05-11T23:52:01.752Z,6.05
2017-05-11T23:54:28.654Z,6.00
2017-05-11T23:56:56.299Z,5.97
2017-05-11T23:59:23.214Z,5.92
